createdAt,value
2018-04-14T00:00:56.167Z,100122.66
2018-04-14T00:02:02.220Z,100121.19
2018-04-14T00:03:08.695Z,100122.10
2018-04-14T00:04:15.006Z,100127.67
2018-04-14T00:05:20.981Z,100124.48
2018-04-14T00:06:27.223Z,100126.54
2018-04-14T00:07:33.552Z,100133.72
2018-04-14T00:08:39.864Z,100129.47
2018-04-14T00:09:46.151Z,100134.66
2018-04-14T00:10:52.490Z,100135.58
2018-04-14T00:11:58.772Z,100137.72
2018-04-14T00:13:05.074Z,100140.34
2018-04-14T00:14:11.919Z,100148.22
2018-04-14T00:15:18.258Z,100145.74
2018-04-14T00:16:24.543Z,100147.19
2018-04-14T00:17:30.866Z,100142.39
2018-04-14T00:18:43.125Z,100151.70
2018-04-14T00:19:49.307Z,100154.81
2018-04-14T00:20:55.324Z,100152.13
2018-04-14T00:22:06.672Z,100163.60
2018-04-14T00:23:16.938Z,100162.69
2018-04-14T00:24:25.236Z,100158.78
2018-04-14T00:25:31.812Z,100167.66
2018-04-14T00:26:38.142Z,100176.21
2018-04-14T00:27:44.451Z,100167.08
2018-04-14T00:28:50.847Z,100176.67
2018-04-14T00:29:57.976Z,100173.47
2018-04-14T00:31:05.396Z,100180.45
2018-04-14T00:32:11.633Z,100179.69
2018-04-14T00:33:17.937Z,100186.11
2018-04-14T00:34:24.247Z,100188.21
2018-04-14T00:35:31.436Z,100189.52
2018-04-14T00:36:37.814Z,100191.23
2018-04-14T00:37:44.129Z,100191.69
2018-04-14T00:38:52.107Z,100194.29
2018-04-14T00:39:58.416Z,100195.14
2018-04-14T00:41:04.688Z,100196.36
2018-04-14T00:42:11.013Z,100197.28
2018-04-14T00:43:17.316Z,100206.13
2018-04-14T00:44:23.616Z,100204.18
2018-04-14T00:45:33.781Z,100207.39
2018-04-14T00:46:40.050Z,100205.16
2018-04-14T00:47:46.168Z,100206.10
2018-04-14T00:48:52.693Z,100204.61
2018-04-14T00:49:59.161Z,100211.63
2018-04-14T00:51:06.958Z,100212.64
2018-04-14T00:52:13.245Z,100212.70
2018-04-14T00:53:30.450Z,100216.75
2018-04-14T00:54:36.263Z,100218.49
2018-04-14T00:55:42.472Z,100219.38
2018-04-14T00:56:48.746Z,100222.16
2018-04-14T00:57:55.660Z,100223.44
2018-04-14T00:59:01.937Z,100224.47
2018-04-14T01:00:08.258Z,100226.09
2018-04-14T01:01:14.211Z,100228.75
2018-04-14T01:02:21.198Z,100233.69
2018-04-14T01:03:27.507Z,100228.31
2018-04-14T01:04:34.502Z,100227.89
2018-04-14T01:05:41.996Z,100232.66
2018-04-14T01:06:49.160Z,100237.17
2018-04-14T01:07:55.437Z,100234.17
2018-04-14T01:09:01.721Z,100239.36
2018-04-14T01:10:07.724Z,100240.13
2018-04-14T01:11:13.722Z,100232.38
2018-04-14T01:12:20.015Z,100230.89
2018-04-14T01:13:26.271Z,100230.37
2018-04-14T01:14:32.558Z,100235.34
2018-04-14T01:15:38.887Z,100234.42
2018-04-14T01:16:45.163Z,100241.39
2018-04-14T01:17:51.319Z,100236.14
2018-04-14T01:18:57.935Z,100236.14
2018-04-14T01:20:04.291Z,100240.13
2018-04-14T01:21:10.554Z,100244.16
2018-04-14T01:22:17.531Z,100242.94
2018-04-14T01:23:29.942Z,100242.45
2018-04-14T01:24:35.919Z,100245.08
2018-04-14T01:25:42.247Z,100249.41
2018-04-14T01:26:48.459Z,100251.18
2018-04-14T01:27:54.744Z,100244.92
2018-04-14T01:29:01.066Z,100255.48
2018-04-14T01:30:07.366Z,100249.34
2018-04-14T01:31:13.684Z,100258.08
2018-04-14T01:32:19.991Z,100259.80
2018-04-14T01:33:26.300Z,100260.56
2018-04-14T01:34:32.638Z,100255.03
2018-04-14T01:35:38.927Z,100254.94
2018-04-14T01:36:45.237Z,100257.63
2018-04-14T01:37:53.017Z,100259.52
2018-04-14T01:38:59.345Z,100268.22
2018-04-14T01:40:05.771Z,100264.30
2018-04-14T01:41:12.522Z,100268.61
2018-04-14T01:42:18.586Z,100272.89
2018-04-14T01:43:25.564Z,100270.30
2018-04-14T01:44:31.533Z,100271.63
2018-04-14T01:45:37.876Z,100278.05
2018-04-14T01:46:44.228Z,100280.22
2018-04-14T01:47:50.537Z,100286.36
2018-04-14T01:48:56.843Z,100287.64
2018-04-14T01:50:02.828Z,100280.62
2018-04-14T01:51:09.122Z,100284.25
2018-04-14T01:52:15.471Z,100291.70
2018-04-14T01:53:22.050Z,100293.83
2018-04-14T01:54:28.387Z,100294.86
2018-04-14T01:55:34.661Z,100295.66
2018-04-14T01:56:40.922Z,100289.35
2018-04-14T01:57:52.227Z,100294.23
2018-04-14T01:58:58.534Z,100293.92
2018-04-14T02:00:03.954Z,100296.60
2018-04-14T02:01:10.341Z,100297.55
2018-04-14T02:02:16.894Z,100289.88
2018-04-14T02:03:23.627Z,100302.52
2018-04-14T02:04:29.994Z,100294.52
2018-04-14T02:05:36.306Z,100299.92
2018-04-14T02:06:42.283Z,100297.32
2018-04-14T02:07:48.620Z,100302.66
2018-04-14T02:08:54.613Z,100302.59
2018-04-14T02:10:00.836Z,100303.03
2018-04-14T02:11:06.654Z,100303.42
2018-04-14T02:12:12.969Z,100303.28
2018-04-14T02:13:20.934Z,100308.53
2018-04-14T02:14:27.121Z,100309.94
2018-04-14T02:15:33.442Z,100308.84
2018-04-14T02:16:39.750Z,100311.44
2018-04-14T02:17:46.039Z,100315.75
2018-04-14T02:18:52.375Z,100314.04
2018-04-14T02:19:59.172Z,100315.75
2018-04-14T02:21:05.382Z,100310.95
2018-04-14T02:22:11.365Z,100321.40
2018-04-14T02:23:17.577Z,100313.52
2018-04-14T02:24:23.915Z,100317.95
2018-04-14T02:25:30.242Z,100316.64
2018-04-14T02:26:36.532Z,100324.54
2018-04-14T02:27:42.848Z,100323.48
2018-04-14T02:28:50.335Z,100316.95
2018-04-14T02:29:58.395Z,100322.23
2018-04-14T02:31:04.671Z,100323.42
2018-04-14T02:32:10.942Z,100325.56
2018-04-14T02:33:17.159Z,100333.47
2018-04-14T02:34:23.402Z,100331.27
2018-04-14T02:35:29.695Z,100332.95
2018-04-14T02:36:36.010Z,100330.81
2018-04-14T02:37:42.319Z,100326.54
2018-04-14T02:38:48.603Z,100331.79
2018-04-14T02:39:54.886Z,100332.67
2018-04-14T02:41:01.155Z,100332.67
2018-04-14T02:42:07.373Z,100333.89
2018-04-14T02:43:13.414Z,100334.27
2018-04-14T02:44:19.855Z,100326.88
2018-04-14T02:45:26.907Z,100331.07
2018-04-14T02:46:32.945Z,100335.49
2018-04-14T02:47:39.224Z,100337.55
2018-04-14T02:48:45.563Z,100344.08
2018-04-14T02:49:51.836Z,100347.25
2018-04-14T02:50:58.047Z,100345.94
2018-04-14T02:52:04.420Z,100348.45
2018-04-14T02:53:10.927Z,100351.81
2018-04-14T02:54:17.202Z,100352.24
2018-04-14T02:55:23.529Z,100352.91
2018-04-14T02:56:30.286Z,100349.42
2018-04-14T02:57:36.519Z,100344.60
2018-04-14T02:58:42.747Z,100350.91
2018-04-14T02:59:49.622Z,100352.22
2018-04-14T03:00:55.512Z,100357.07
2018-04-14T03:02:01.805Z,100347.25
2018-04-14T03:03:08.149Z,100355.16
2018-04-14T03:04:14.338Z,100362.16
2018-04-14T03:05:20.621Z,100355.64
2018-04-14T03:06:26.943Z,100355.47
2018-04-14T03:07:33.920Z,100363.20
2018-04-14T03:08:42.700Z,100354.08
2018-04-14T03:09:48.940Z,100358.78
2018-04-14T03:10:55.143Z,100359.84
2018-04-14T03:12:01.488Z,100359.98
2018-04-14T03:13:07.952Z,100369.12
2018-04-14T03:14:14.195Z,100364.89
2018-04-14T03:15:20.502Z,100373.94
2018-04-14T03:16:26.826Z,100374.71
2018-04-14T03:17:33.150Z,100372.37
2018-04-14T03:18:39.580Z,100377.50
2018-04-14T03:19:45.870Z,100376.77
2018-04-14T03:20:52.446Z,100378.50
2018-04-14T03:21:58.673Z,100377.77
2018-04-14T03:23:05.018Z,100376.85
2018-04-14T03:24:11.299Z,100380.67
2018-04-14T03:25:17.379Z,100374.80
2018-04-14T03:26:23.602Z,100381.84
2018-04-14T03:27:29.851Z,100386.24
2018-04-14T03:28:37.311Z,100387.09
2018-04-14T03:29:45.996Z,100387.84
2018-04-14T03:30:52.335Z,100392.32
2018-04-14T03:31:58.659Z,100388.70
2018-04-14T03:33:04.989Z,100395.29
2018-04-14T03:34:11.383Z,100395.20
2018-04-14T03:35:17.689Z,100395.29
2018-04-14T03:36:26.137Z,100390.16
2018-04-14T03:37:31.722Z,100387.50
2018-04-14T03:38:37.989Z,100389.70
2018-04-14T03:39:44.849Z,100400.09
2018-04-14T03:40:51.106Z,100394.78
2018-04-14T03:41:57.877Z,100394.66
2018-04-14T03:43:04.276Z,100399.89
2018-04-14T03:44:10.573Z,100397.77
2018-04-14T03:45:16.850Z,100396.80
2018-04-14T03:46:23.162Z,100407.51
2018-04-14T03:47:29.396Z,100399.20
2018-04-14T03:48:35.687Z,100408.42
2018-04-14T03:49:45.747Z,100409.27
2018-04-14T03:50:54.726Z,100417.58
2018-04-14T03:52:01.757Z,100420.41
2018-04-14T03:53:08.002Z,100415.55
2018-04-14T03:54:14.415Z,100419.52
2018-04-14T03:55:20.730Z,100423.86
2018-04-14T03:56:27.022Z,100424.69
2018-04-14T03:57:33.352Z,100426.80
2018-04-14T03:58:39.990Z,100425.60
2018-04-14T03:59:46.238Z,100430.91
2018-04-14T04:00:52.488Z,100430.42
2018-04-14T04:01:58.503Z,100435.73
2018-04-14T04:03:04.993Z,100433.91
2018-04-14T04:04:11.238Z,100434.39
2018-04-14T04:05:17.702Z,100435.19
2018-04-14T04:06:24.046Z,100433.66
2018-04-14T04:07:31.612Z,100438.61
2018-04-14T04:08:39.475Z,100437.81
2018-04-14T04:09:45.756Z,100438.30
2018-04-14T04:10:58.353Z,100437.25
2018-04-14T04:12:05.417Z,100447.67
2018-04-14T04:13:11.758Z,100453.09
2018-04-14T04:14:17.767Z,100450.14
2018-04-14T04:15:23.707Z,100454.67
2018-04-14T04:16:29.954Z,100453.53
2018-04-14T04:17:36.289Z,100460.17
2018-04-14T04:18:53.908Z,100455.27
2018-04-14T04:20:11.017Z,100455.62
2018-04-14T04:23:08.385Z,100472.58
2018-04-14T04:24:26.434Z,100471.27
2018-04-14T04:25:40.447Z,100479.36
2018-04-14T04:26:46.209Z,100485.46
2018-04-14T04:27:51.926Z,100479.87
2018-04-14T04:28:57.575Z,100481.20
2018-04-14T04:30:03.316Z,100483.83
2018-04-14T04:31:09.449Z,100485.14
2018-04-14T04:32:15.641Z,100485.57
2018-04-14T04:33:21.289Z,100491.69
2018-04-14T04:34:26.981Z,100490.34
2018-04-14T04:35:32.717Z,100489.94
2018-04-14T04:36:39.291Z,100489.51
2018-04-14T04:37:45.103Z,100489.11
2018-04-14T04:38:50.811Z,100489.42
2018-04-14T04:39:56.145Z,100486.48
2018-04-14T04:41:01.951Z,100483.86
2018-04-14T04:42:08.360Z,100489.13
2018-04-14T04:43:14.619Z,100493.07
2018-04-14T04:44:21.058Z,100494.77
2018-04-14T04:45:27.191Z,100494.38
2018-04-14T04:46:32.847Z,100493.50
2018-04-14T04:47:41.536Z,100495.33
2018-04-14T04:48:47.305Z,100496.80
2018-04-14T04:49:55.430Z,100501.94
2018-04-14T04:51:01.223Z,100495.40
2018-04-14T04:52:07.528Z,100504.13
2018-04-14T04:53:13.187Z,100498.52
2018-04-14T04:54:21.085Z,100501.03
2018-04-14T04:55:28.619Z,100502.39
2018-04-14T04:56:34.426Z,100505.08
2018-04-14T04:57:40.248Z,100506.33
2018-04-14T04:58:45.970Z,100506.70
2018-04-14T04:59:51.667Z,100508.91
2018-04-14T05:00:57.375Z,100509.84
2018-04-14T05:02:02.807Z,100512.89
2018-04-14T05:03:08.525Z,100509.90
2018-04-14T05:04:15.576Z,100508.48
2018-04-14T05:05:21.333Z,100516.16
2018-04-14T05:06:27.103Z,100519.95
2018-04-14T05:07:32.765Z,100516.19
2018-04-14T05:08:38.472Z,100515.47
2018-04-14T05:09:44.334Z,100518.58
2018-04-14T05:10:50.131Z,100519.55
2018-04-14T05:11:56.109Z,100518.28
2018-04-14T05:13:02.201Z,100515.73
2018-04-14T05:14:07.979Z,100516.59
2018-04-14T05:15:13.713Z,100516.99
2018-04-14T05:16:19.532Z,100521.36
2018-04-14T05:17:25.198Z,100523.98
2018-04-14T05:18:31.002Z,100524.09
2018-04-14T05:19:36.994Z,100532.86
2018-04-14T05:20:42.663Z,100528.01
2018-04-14T05:21:48.372Z,100534.20
2018-04-14T05:22:54.084Z,100530.39
2018-04-14T05:23:59.817Z,100533.90
2018-04-14T05:25:05.442Z,100535.05
2018-04-14T05:26:11.161Z,100544.56
2018-04-14T05:27:16.878Z,100542.07
2018-04-14T05:28:22.663Z,100538.67
2018-04-14T05:29:28.423Z,100543.88
2018-04-14T05:30:34.154Z,100550.45
2018-04-14T05:31:39.859Z,100542.92
2018-04-14T05:32:45.579Z,100551.61
2018-04-14T05:33:51.284Z,100553.30
2018-04-14T05:34:58.841Z,100555.90
2018-04-14T05:36:05.154Z,100546.14
2018-04-14T05:37:10.547Z,100558.63
2018-04-14T05:38:16.210Z,100557.19
2018-04-14T05:39:21.870Z,100558.84
2018-04-14T05:40:27.659Z,100562.78
2018-04-14T05:41:34.176Z,100560.86
2018-04-14T05:42:40.169Z,100560.81
2018-04-14T05:43:46.447Z,100559.44
2018-04-14T05:44:52.132Z,100567.11
2018-04-14T05:45:58.505Z,100568.84
2018-04-14T05:47:03.895Z,100569.70
2018-04-14T05:48:10.711Z,100573.96
2018-04-14T05:49:16.822Z,100578.52
2018-04-14T05:50:23.364Z,100583.47
2018-04-14T05:51:33.602Z,100582.77
2018-04-14T05:52:39.446Z,100590.28
2018-04-14T05:53:46.555Z,100588.08
2018-04-14T05:54:52.191Z,100592.05
2018-04-14T05:56:00.454Z,100594.59
2018-04-14T05:57:06.074Z,100593.97
2018-04-14T05:58:11.830Z,100589.55
2018-04-14T05:59:18.489Z,100593.49
2018-04-14T06:00:24.618Z,100593.55
2018-04-14T06:01:31.082Z,100594.30
2018-04-14T06:02:37.882Z,100598.64
2018-04-14T06:03:44.653Z,100594.50
2018-04-14T06:04:50.867Z,100604.45
2018-04-14T06:05:58.254Z,100602.68
2018-04-14T06:07:07.174Z,100598.62
2018-04-14T06:08:13.433Z,100606.22
2018-04-14T06:09:20.666Z,100610.34
2018-04-14T06:10:27.462Z,100608.25
2018-04-14T06:11:34.534Z,100619.67
2018-04-14T06:12:41.242Z,100613.31
2018-04-14T06:13:48.344Z,100614.17
2018-04-14T06:14:54.671Z,100616.45
2018-04-14T06:16:01.458Z,100615.14
2018-04-14T06:17:08.426Z,100617.09
2018-04-14T06:18:14.798Z,100620.98
2018-04-14T06:19:20.900Z,100615.83
2018-04-14T06:20:27.098Z,100616.31
2018-04-14T06:21:33.952Z,100624.09
2018-04-14T06:22:41.108Z,100623.45
2018-04-14T06:23:48.721Z,100618.12
2018-04-14T06:24:55.173Z,100620.42
2018-04-14T06:26:01.247Z,100627.23
2018-04-14T06:27:07.503Z,100629.52
2018-04-14T06:28:13.880Z,100628.58
2018-04-14T06:29:20.216Z,100626.45
2018-04-14T06:30:26.509Z,100628.42
2018-04-14T06:31:32.628Z,100631.77
2018-04-14T06:32:39.479Z,100628.94
2018-04-14T06:33:45.834Z,100631.20
2018-04-14T06:34:51.758Z,100640.06
2018-04-14T06:35:57.695Z,100639.92
2018-04-14T06:37:04.496Z,100641.44
2018-04-14T06:38:12.311Z,100641.06
2018-04-14T06:39:19.276Z,100642.61
2018-04-14T06:40:30.774Z,100649.47
2018-04-14T06:41:37.152Z,100650.87
2018-04-14T06:42:42.980Z,100647.50
2018-04-14T06:43:48.799Z,100645.19
2018-04-14T06:44:54.475Z,100641.41
2018-04-14T06:46:00.141Z,100640.64
2018-04-14T06:47:06.828Z,100647.70
2018-04-14T06:48:13.270Z,100654.67
2018-04-14T06:49:18.983Z,100654.63
2018-04-14T06:50:24.702Z,100660.11
2018-04-14T06:51:30.384Z,100659.31
2018-04-14T06:52:36.054Z,100665.67
2018-04-14T06:53:41.755Z,100657.36
2018-04-14T06:54:47.482Z,100665.79
2018-04-14T06:55:53.191Z,100661.91
2018-04-14T06:56:59.077Z,100666.37
2018-04-14T06:58:04.752Z,100660.63
2018-04-14T06:59:18.329Z,100660.60
2018-04-14T07:00:23.978Z,100668.69
2018-04-14T07:01:29.616Z,100671.58
2018-04-14T07:02:35.926Z,100660.68
2018-04-14T07:03:42.555Z,100667.17
2018-04-14T07:04:48.281Z,100671.52
2018-04-14T07:05:53.792Z,100669.15
2018-04-14T07:06:59.470Z,100663.23
2018-04-14T07:08:05.041Z,100669.36
2018-04-14T07:09:10.752Z,100674.98
2018-04-14T07:10:16.239Z,100670.16
2018-04-14T07:11:21.923Z,100665.72
2018-04-14T07:12:27.615Z,100673.84
2018-04-14T07:13:33.286Z,100668.38
2018-04-14T07:14:41.403Z,100663.41
2018-04-14T07:15:47.004Z,100667.45
2018-04-14T07:16:52.701Z,100675.20
2018-04-14T07:17:58.407Z,100671.82
2018-04-14T07:19:04.063Z,100671.91
2018-04-14T07:20:14.238Z,100673.48
2018-04-14T07:21:21.334Z,100680.02
2018-04-14T07:22:26.984Z,100675.65
2018-04-14T07:23:32.691Z,100674.08
2018-04-14T07:24:38.543Z,100668.33
2018-04-14T07:25:44.239Z,100671.27
2018-04-14T07:26:49.903Z,100672.82
2018-04-14T07:27:55.818Z,100681.08
2018-04-14T07:29:02.177Z,100684.00
2018-04-14T07:30:08.689Z,100684.37
2018-04-14T07:31:15.771Z,100682.45
2018-04-14T07:32:21.493Z,100686.14
2018-04-14T07:33:27.353Z,100685.83
2018-04-14T07:34:32.815Z,100686.60
2018-04-14T07:35:38.578Z,100689.48
2018-04-14T07:36:44.241Z,100689.46
2018-04-14T07:37:51.330Z,100697.95
2018-04-14T07:38:56.970Z,100696.44
2018-04-14T07:40:02.429Z,100693.86
2018-04-14T07:41:11.909Z,100693.83
2018-04-14T07:42:20.350Z,100693.66
2018-04-14T07:43:25.995Z,100693.42
2018-04-14T07:44:31.716Z,100696.70
2018-04-14T07:45:37.407Z,100697.50
2018-04-14T07:46:43.077Z,100696.38
2018-04-14T07:47:48.806Z,100699.52
2018-04-14T07:48:54.475Z,100697.22
2018-04-14T07:50:01.111Z,100696.62
2018-04-14T07:51:06.961Z,100695.56
2018-04-14T07:52:12.690Z,100705.13
2018-04-14T07:53:19.031Z,100701.36
2018-04-14T07:54:24.726Z,100702.42
2018-04-14T07:55:30.466Z,100698.78
2018-04-14T07:56:36.135Z,100703.45
2018-04-14T07:57:42.332Z,100705.68
2018-04-14T07:58:48.168Z,100704.36
2018-04-14T07:59:54.038Z,100708.41
2018-04-14T08:11:54.935Z,100711.46
2018-04-14T08:13:05.798Z,100712.45
2018-04-14T08:14:16.445Z,100714.25
2018-04-14T08:15:27.110Z,100708.77
2018-04-14T08:25:15.036Z,100722.70
2018-04-14T08:26:20.703Z,100721.13
2018-04-14T08:27:28.871Z,100723.27
2018-04-14T08:28:34.930Z,100716.43
2018-04-14T08:29:40.975Z,100717.98
2018-04-14T08:37:16.014Z,100715.23
2018-04-14T08:38:29.864Z,100717.01
2018-04-14T08:39:36.097Z,100719.29
2018-04-14T08:40:43.402Z,100722.41
2018-04-14T08:41:49.179Z,100716.55
2018-04-14T08:42:55.628Z,100723.28
2018-04-14T08:44:02.613Z,100725.92
2018-04-14T08:45:08.394Z,100724.42
2018-04-14T08:46:14.121Z,100728.56
2018-04-14T08:48:06.105Z,100731.97
2018-04-14T08:49:13.750Z,100726.53
2018-04-14T08:50:19.452Z,100723.27
2018-04-14T08:51:30.260Z,100722.96
2018-04-14T08:52:39.500Z,100721.98
2018-04-14T08:53:48.394Z,100720.90
2018-04-14T08:54:54.046Z,100717.48
2018-04-14T08:56:00.334Z,100721.85
2018-04-14T08:57:05.940Z,100720.73
2018-04-14T08:58:11.687Z,100719.66
2018-04-14T08:59:17.362Z,100714.65
2018-04-14T09:00:23.039Z,100721.82
2018-04-14T09:01:33.467Z,100721.42
2018-04-14T09:02:39.138Z,100724.05
2018-04-14T09:03:47.515Z,100730.48
2018-04-14T09:05:16.938Z,100721.14
2018-04-14T09:06:23.547Z,100726.45
2018-04-14T09:07:29.388Z,100724.42
2018-04-14T09:08:35.099Z,100728.16
2018-04-14T09:09:40.806Z,100724.66
2018-04-14T09:10:49.388Z,100725.63
2018-04-14T09:11:55.026Z,100727.23
2018-04-14T09:13:00.978Z,100726.45
2018-04-14T09:14:07.956Z,100720.61
2018-04-14T09:15:15.803Z,100728.08
2018-04-14T09:16:21.527Z,100720.92
2018-04-14T09:17:27.740Z,100727.84
2018-04-14T09:18:33.953Z,100726.46
2018-04-14T09:19:40.283Z,100723.45
2018-04-14T09:20:46.355Z,100719.14
2018-04-14T09:21:52.557Z,100722.10
2018-04-14T09:22:58.783Z,100729.05
2018-04-14T09:24:05.108Z,100723.18
2018-04-14T09:25:11.402Z,100725.67
2018-04-14T09:26:17.675Z,100732.56
2018-04-14T09:27:23.906Z,100724.73
2018-04-14T09:28:35.854Z,100723.20
2018-04-14T09:29:43.141Z,100725.06
2018-04-14T09:30:50.511Z,100722.77
2018-04-14T09:31:56.502Z,100721.29
2018-04-14T09:33:02.815Z,100721.89
2018-04-14T09:34:09.109Z,100721.30
2018-04-14T09:35:15.411Z,100720.36
2018-04-14T09:36:22.392Z,100712.42
2018-04-14T09:37:28.710Z,100728.16
2018-04-14T09:38:34.711Z,100720.80
2018-04-14T09:39:40.999Z,100719.30
2018-04-14T09:40:50.210Z,100715.87
2018-04-14T09:41:56.301Z,100714.57
2018-04-14T09:43:02.626Z,100720.62
2018-04-14T09:44:08.832Z,100715.11
2018-04-14T09:45:14.834Z,100717.92
2018-04-14T09:46:23.959Z,100716.89
2018-04-14T09:47:30.396Z,100709.89
2018-04-14T09:48:36.891Z,100704.03
2018-04-14T09:49:42.886Z,100716.77
2018-04-14T09:50:49.195Z,100711.19
2018-04-14T09:51:55.453Z,100711.11
2018-04-14T09:53:01.800Z,100714.84
2018-04-14T09:54:09.227Z,100718.26
2018-04-14T09:55:15.454Z,100727.80
2018-04-14T09:56:21.727Z,100711.84
2018-04-14T09:57:28.716Z,100707.57
2018-04-14T09:58:35.055Z,100705.52
2018-04-14T09:59:41.413Z,100707.51
2018-04-14T10:00:53.388Z,100710.07
2018-04-14T10:02:02.206Z,100707.80
2018-04-14T10:03:17.677Z,100717.83
2018-04-14T10:04:23.703Z,100710.10
2018-04-14T10:05:30.071Z,100710.11
2018-04-14T10:06:36.362Z,100712.73
2018-04-14T10:07:42.662Z,100707.42
2018-04-14T10:08:48.983Z,100709.77
2018-04-14T10:09:55.302Z,100714.05
2018-04-14T10:11:01.535Z,100712.89
2018-04-14T10:12:07.834Z,100718.84
2018-04-14T10:13:14.106Z,100715.46
2018-04-14T10:14:20.339Z,100710.89
2018-04-14T10:15:26.534Z,100712.78
2018-04-14T10:16:35.105Z,100710.84
2018-04-14T10:17:41.782Z,100714.83
2018-04-14T10:18:48.039Z,100715.08
2018-04-14T10:19:56.032Z,100714.09
2018-04-14T10:21:02.347Z,100719.84
2018-04-14T10:22:09.430Z,100707.38
2018-04-14T10:23:15.643Z,100712.86
2018-04-14T10:24:21.846Z,100712.69
2018-04-14T10:25:28.053Z,100716.16
2018-04-14T10:26:34.006Z,100713.66
2018-04-14T10:27:40.048Z,100715.14
2018-04-14T10:28:46.387Z,100715.19
2018-04-14T10:29:54.975Z,100710.63
2018-04-14T10:31:06.251Z,100707.19
2018-04-14T10:32:13.473Z,100701.10
2018-04-14T10:33:19.392Z,100710.72
2018-04-14T10:34:25.722Z,100705.37
2018-04-14T10:35:32.048Z,100699.87
2018-04-14T10:36:38.603Z,100696.44
2018-04-14T10:37:44.950Z,100703.95
2018-04-14T10:38:51.496Z,100708.02
2018-04-14T10:39:57.792Z,100706.77
2018-04-14T10:41:04.100Z,100706.09
2018-04-14T10:42:10.458Z,100709.40
2018-04-14T10:43:16.740Z,100713.44
2018-04-14T10:44:23.057Z,100715.03
2018-04-14T10:45:29.350Z,100718.21
2018-04-14T10:46:35.689Z,100726.55
2018-04-14T10:47:42.557Z,100720.28
2018-04-14T10:48:49.767Z,100719.28
2018-04-14T10:49:56.063Z,100721.65
2018-04-14T10:51:06.825Z,100719.10
2018-04-14T10:52:16.591Z,100717.79
2018-04-14T10:53:22.959Z,100716.86
2018-04-14T10:54:29.275Z,100716.97
2018-04-14T10:55:35.852Z,100716.75
2018-04-14T10:56:41.640Z,100711.20
2018-04-14T10:57:47.935Z,100722.88
2018-04-14T10:58:54.217Z,100721.98
2018-04-14T11:00:00.531Z,100714.48
2018-04-14T11:01:06.900Z,100713.83
2018-04-14T11:02:12.840Z,100717.78
2018-04-14T11:03:21.345Z,100718.16
2018-04-14T11:04:27.851Z,100718.80
2018-04-14T11:05:34.138Z,100723.48
2018-04-14T11:06:40.444Z,100714.39
2018-04-14T11:07:46.785Z,100716.62
2018-04-14T11:08:53.078Z,100719.54
2018-04-14T11:09:59.576Z,100716.58
2018-04-14T11:11:05.925Z,100717.81
2018-04-14T11:12:15.741Z,100718.66
2018-04-14T11:13:27.098Z,100721.23
2018-04-14T11:14:33.361Z,100716.45
2018-04-14T11:15:39.631Z,100715.05
2018-04-14T11:16:45.929Z,100716.05
2018-04-14T11:17:53.344Z,100722.70
2018-04-14T11:18:59.802Z,100726.60
2018-04-14T11:20:06.373Z,100724.42
2018-04-14T11:21:12.552Z,100718.31
2018-04-14T11:22:18.834Z,100720.22
2018-04-14T11:23:25.193Z,100719.59
2018-04-14T11:24:31.471Z,100716.27
2018-04-14T11:25:37.787Z,100718.08
2018-04-14T11:26:44.066Z,100707.22
2018-04-14T11:27:50.404Z,100715.42
2018-04-14T11:28:56.707Z,100718.98
2018-04-14T11:30:02.827Z,100710.11
2018-04-14T11:31:09.155Z,100710.23
2018-04-14T11:32:15.421Z,100714.59
2018-04-14T11:33:21.683Z,100717.45
2018-04-14T11:34:29.774Z,100716.20
2018-04-14T11:35:38.030Z,100717.45
2018-04-14T11:36:44.452Z,100718.02
2018-04-14T11:37:50.695Z,100715.01
2018-04-14T11:38:57.055Z,100712.30
2018-04-14T11:40:03.311Z,100712.34
2018-04-14T11:41:09.374Z,100713.65
2018-04-14T11:42:15.626Z,100720.34
2018-04-14T11:43:22.004Z,100731.09
2018-04-14T11:44:28.564Z,100725.81
2018-04-14T11:45:35.150Z,100718.91
2018-04-14T11:46:41.387Z,100724.38
2018-04-14T11:47:47.743Z,100732.02
2018-04-14T11:48:54.040Z,100723.57
2018-04-14T11:50:02.352Z,100721.72
2018-04-14T11:51:10.527Z,100726.92
2018-04-14T11:52:16.878Z,100721.42
2018-04-14T11:53:23.147Z,100730.12
2018-04-14T11:54:29.512Z,100725.53
2018-04-14T11:55:35.802Z,100732.43
2018-04-14T11:56:42.114Z,100733.36
2018-04-14T11:57:48.382Z,100737.08
2018-04-14T11:58:54.739Z,100732.48
2018-04-14T12:00:01.041Z,100733.76
2018-04-14T12:01:07.363Z,100726.89
2018-04-14T12:02:13.643Z,100735.31
2018-04-14T12:03:19.956Z,100738.13
2018-04-14T12:04:26.352Z,100725.48
2018-04-14T12:05:33.336Z,100725.91
2018-04-14T12:06:41.583Z,100743.00
2018-04-14T12:07:48.286Z,100733.98
2018-04-14T12:08:54.461Z,100741.63
2018-04-14T12:10:00.829Z,100737.10
2018-04-14T12:11:07.351Z,100736.25
2018-04-14T12:12:13.729Z,100736.20
2018-04-14T12:13:20.038Z,100737.98
2018-04-14T12:14:26.998Z,100743.91
2018-04-14T12:15:33.921Z,100736.77
2018-04-14T12:16:40.211Z,100734.34
2018-04-14T12:17:46.523Z,100731.96
2018-04-14T12:18:53.684Z,100734.72
2018-04-14T12:20:00.170Z,100741.05
2018-04-14T12:21:06.514Z,100737.40
2018-04-14T12:22:15.330Z,100735.52
2018-04-14T12:23:21.507Z,100738.86
2018-04-14T12:24:27.768Z,100733.36
2018-04-14T12:25:35.135Z,100738.96
2018-04-14T12:26:42.882Z,100733.61
2018-04-14T12:27:49.151Z,100739.84
2018-04-14T12:28:55.361Z,100741.31
2018-04-14T12:30:01.705Z,100738.13
2018-04-14T12:31:07.972Z,100740.03
2018-04-14T12:32:14.179Z,100736.35
2018-04-14T12:33:20.687Z,100741.25
2018-04-14T12:34:26.910Z,100738.64
2018-04-14T12:35:33.250Z,100734.21
2018-04-14T12:36:39.309Z,100733.98
2018-04-14T12:37:45.539Z,100733.55
2018-04-14T12:38:51.878Z,100726.05
2018-04-14T12:39:57.883Z,100733.31
2018-04-14T12:41:04.288Z,100736.41
2018-04-14T12:42:10.227Z,100738.14
2018-04-14T12:43:16.501Z,100733.52
2018-04-14T12:44:22.706Z,100736.11
2018-04-14T12:45:29.149Z,100731.55
2018-04-14T12:46:35.456Z,100732.76
2018-04-14T12:47:41.763Z,100736.77
2018-04-14T12:48:48.042Z,100738.54
2018-04-14T12:49:54.839Z,100738.96
2018-04-14T12:51:01.115Z,100741.77
2018-04-14T12:52:07.203Z,100735.20
2018-04-14T12:53:13.599Z,100737.27
2018-04-14T12:54:19.774Z,100740.03
2018-04-14T12:55:26.072Z,100739.78
2018-04-14T12:56:32.375Z,100743.73
2018-04-14T12:57:40.860Z,100742.37
2018-04-14T12:58:47.019Z,100744.00
2018-04-14T12:59:53.324Z,100742.05
2018-04-14T13:00:59.692Z,100741.34
2018-04-14T13:02:05.614Z,100741.42
2018-04-14T13:03:11.839Z,100740.41
2018-04-14T13:04:18.067Z,100738.59
2018-04-14T13:05:24.391Z,100738.34
2018-04-14T13:06:30.666Z,100739.50
2018-04-14T13:07:37.006Z,100739.83
2018-04-14T13:08:43.299Z,100741.30
2018-04-14T13:09:49.511Z,100739.96